Kerman, California
Current Conditions -  °F | °C
As of 1:53 PM on Friday 24 Oct 2014 (Local Time) from KMAE Reporting Station
Clear Clear  
Wind Chill: 80°   Ceiling: Unl
Heat Index: 80°   Visibility: 8mi
Dew Point: 47°   Wind: 7mph
Humidity: 31%   Direction: 150°SSE
Pressure: 29.9"   Gusts: NA
Location:  36.73°N, 120.06°W
Report Text: KMAE 242053Z AUTO 15006KT 8SM CLR 27/08 A2990 RMK AO2 SLP124 T02670083 58031
Loading
Personal Weather Stations






























Interactive Weather Map
Tropical Storm Tracking
New forecast layout! Learn more

10-Day Weather Forecast

Advertisements
Track Severe Weather on mobile